createdAt,value
2022-12-11T00:03:28.359Z,87.56
2022-12-11T00:08:30.847Z,87.06
2022-12-11T00:13:34.653Z,87.19
2022-12-11T00:18:37.480Z,87.26
2022-12-11T00:23:40.051Z,88.04
2022-12-11T00:28:45.250Z,87.83
2022-12-11T00:33:49.573Z,87.94
2022-12-11T00:38:53.017Z,87.45
2022-12-11T00:43:57.849Z,88.20
2022-12-11T00:49:00.341Z,88.34
2022-12-11T00:54:02.891Z,88.71
2022-12-11T00:59:06.706Z,88.44
2022-12-11T01:04:09.181Z,88.66
2022-12-11T01:09:29.136Z,88.87
2022-12-11T01:14:32.966Z,88.48
2022-12-11T01:19:35.437Z,88.66
2022-12-11T01:24:38.020Z,88.35
2022-12-11T01:29:41.806Z,88.93
2022-12-11T01:34:44.270Z,88.40
2022-12-11T01:39:46.752Z,88.57
2022-12-11T01:45:27.285Z,88.29
2022-12-11T01:50:34.081Z,88.50
2022-12-11T01:55:39.400Z,88.98
2022-12-11T02:00:41.932Z,89.24
2022-12-11T02:05:46.023Z,89.15
2022-12-11T02:11:04.135Z,89.64
2022-12-11T02:16:18.364Z,88.92
2022-12-11T02:21:27.011Z,89.17
2022-12-11T02:26:54.918Z,88.99
2022-12-11T02:32:02.447Z,89.45
2022-12-11T02:37:10.535Z,89.49
2022-12-11T02:42:16.154Z,89.21
2022-12-11T02:47:22.122Z,89.17
2022-12-11T02:52:26.482Z,89.29
2022-12-11T02:57:34.375Z,89.74
2022-12-11T03:02:39.742Z,90.07
2022-12-11T03:07:44.762Z,89.64
2022-12-11T03:12:53.566Z,89.78
2022-12-11T03:18:04.684Z,90.10
2022-12-11T03:23:16.594Z,90.79
2022-12-11T03:28:22.943Z,90.72
2022-12-11T03:33:32.102Z,90.73
2022-12-11T03:38:39.932Z,90.73
2022-12-11T03:43:42.813Z,91.53
2022-12-11T03:48:49.666Z,91.50
2022-12-11T03:53:54.057Z,92.20
2022-12-11T03:58:56.546Z,92.52
2022-12-11T04:04:00.464Z,92.92
2022-12-11T04:09:02.985Z,92.84
2022-12-11T04:14:24.470Z,92.66
2022-12-11T04:19:46.071Z,93.00
2022-12-11T04:24:48.901Z,92.83
2022-12-11T04:29:51.369Z,93.43
2022-12-11T04:34:55.218Z,93.53
2022-12-11T04:39:57.679Z,93.80
2022-12-11T04:45:00.136Z,93.65
2022-12-11T04:50:04.790Z,93.62
2022-12-11T04:55:09.128Z,93.56
2022-12-11T05:00:12.916Z,93.30
2022-12-11T05:05:16.737Z,93.19
2022-12-11T05:10:19.265Z,93.38
2022-12-11T05:15:21.761Z,93.60
2022-12-11T05:20:25.620Z,93.92
2022-12-11T05:25:28.218Z,93.89
2022-12-11T05:30:30.669Z,94.02
2022-12-11T05:35:34.692Z,93.96
2022-12-11T05:40:37.220Z,94.08
2022-12-11T05:45:39.690Z,94.07
2022-12-11T05:50:43.482Z,94.15
2022-12-11T05:55:45.954Z,94.06
2022-12-11T06:00:48.973Z,93.81
2022-12-11T06:05:52.781Z,93.82
2022-12-11T06:10:55.259Z,93.75
2022-12-11T06:16:02.518Z,94.05
2022-12-11T06:21:14.522Z,93.92
2022-12-11T06:26:18.297Z,93.73
2022-12-11T06:31:21.796Z,93.35
2022-12-11T06:36:26.078Z,93.63
2022-12-11T06:41:28.556Z,93.94
2022-12-11T06:46:31.186Z,94.06
2022-12-11T06:51:34.994Z,93.98
2022-12-11T06:56:37.637Z,93.81
2022-12-11T07:01:40.749Z,93.73
2022-12-11T07:06:44.575Z,94.08
2022-12-11T07:11:47.102Z,93.87
2022-12-11T07:16:49.583Z,93.94
2022-12-11T07:21:53.494Z,93.82
2022-12-11T07:26:56.000Z,94.10
2022-12-11T07:31:58.626Z,94.06
2022-12-11T07:37:02.586Z,94.26
2022-12-11T07:42:05.120Z,94.40
2022-12-11T07:47:07.607Z,93.88
2022-12-11T07:52:11.398Z,94.19
2022-12-11T07:57:14.426Z,94.41
2022-12-11T08:02:17.131Z,93.99
2022-12-11T08:07:20.982Z,94.50
2022-12-11T08:12:23.466Z,94.31
2022-12-11T08:17:29.547Z,93.86
2022-12-11T08:22:35.759Z,94.60
2022-12-11T08:27:38.238Z,94.72
2022-12-11T08:32:40.846Z,94.34
2022-12-11T08:37:44.733Z,94.28
2022-12-11T08:42:47.194Z,94.73
2022-12-11T08:47:49.685Z,94.62
2022-12-11T08:52:54.100Z,94.72
2022-12-11T08:57:56.600Z,95.06
2022-12-11T09:02:59.090Z,94.91
2022-12-11T09:08:02.914Z,94.65
2022-12-11T09:13:05.526Z,95.48
2022-12-11T09:18:08.095Z,94.78
2022-12-11T09:23:11.872Z,94.86
2022-12-11T09:28:14.412Z,95.31
2022-12-11T09:33:16.978Z,95.24
2022-12-11T09:38:20.777Z,95.61
2022-12-11T09:43:37.187Z,96.04
2022-12-11T09:48:41.150Z,96.11
2022-12-11T09:53:45.040Z,95.37
2022-12-11T09:59:03.151Z,95.56
2022-12-11T10:04:21.625Z,96.49
2022-12-11T10:09:33.293Z,95.93
2022-12-11T10:14:50.523Z,95.85
2022-12-11T10:19:53.677Z,96.16
2022-12-11T10:25:15.305Z,96.58
2022-12-11T10:30:20.332Z,96.81
2022-12-11T10:35:36.256Z,96.51
2022-12-11T10:40:42.934Z,96.23
2022-12-11T10:45:52.671Z,96.42
2022-12-11T11:16:27.417Z,96.15
2022-12-11T11:21:31.743Z,96.47
2022-12-11T11:27:11.081Z,97.43
2022-12-11T11:32:03.185Z,97.60
2022-12-11T11:37:06.118Z,98.16
2022-12-11T11:42:16.204Z,97.96
2022-12-11T11:47:24.893Z,98.60
2022-12-11T11:52:33.115Z,98.08
2022-12-11T11:57:43.310Z,98.15
2022-12-11T12:02:49.017Z,98.20
2022-12-11T12:08:04.748Z,98.27
2022-12-11T12:13:30.440Z,98.09
2022-12-11T12:18:48.904Z,98.01
2022-12-11T12:24:08.280Z,98.53
2022-12-11T12:29:22.036Z,97.99
2022-12-11T12:34:42.918Z,97.89
2022-12-11T12:39:57.803Z,98.29
2022-12-11T12:45:09.867Z,98.00
2022-12-11T12:50:17.360Z,97.73
2022-12-11T12:55:23.917Z,97.87
2022-12-11T13:00:28.932Z,97.21
2022-12-11T13:05:35.306Z,97.48
2022-12-11T13:10:40.877Z,97.38
2022-12-11T13:15:44.302Z,96.89
2022-12-11T13:20:51.725Z,96.80
2022-12-11T13:25:55.976Z,96.65
2022-12-11T13:31:05.642Z,96.07
2022-12-11T13:36:26.731Z,96.25
2022-12-11T13:41:30.949Z,95.67
2022-12-11T13:46:37.753Z,95.91
2022-12-11T13:51:53.562Z,95.79
2022-12-11T13:57:02.888Z,96.17
2022-12-11T14:02:12.811Z,95.89
2022-12-11T14:07:25.460Z,95.92
2022-12-11T14:12:29.883Z,95.57
2022-12-11T14:17:34.903Z,95.86
2022-12-11T14:22:39.297Z,95.71
2022-12-11T14:27:49.103Z,95.37
2022-12-11T14:32:55.103Z,95.63
2022-12-11T14:38:03.235Z,94.99
2022-12-11T14:43:11.545Z,94.94
2022-12-11T14:48:20.428Z,94.50
2022-12-11T14:53:27.003Z,94.54
2022-12-11T14:58:30.281Z,94.45
2022-12-11T15:03:34.988Z,94.88
2022-12-11T15:08:38.886Z,94.64
2022-12-11T15:13:53.681Z,94.41
2022-12-11T15:18:58.690Z,94.92
2022-12-11T15:24:04.757Z,94.41
2022-12-11T15:29:24.253Z,94.00
2022-12-11T15:34:27.177Z,94.49
2022-12-11T15:39:31.239Z,94.62
2022-12-11T15:44:33.710Z,94.10
2022-12-11T15:49:36.156Z,94.24
2022-12-11T15:54:39.950Z,94.04
2022-12-11T15:59:42.582Z,94.16
2022-12-11T16:04:45.098Z,93.69
2022-12-11T16:09:49.557Z,93.48
2022-12-11T16:14:52.370Z,93.56
2022-12-11T16:19:55.059Z,93.41
2022-12-11T16:24:58.851Z,92.46
2022-12-11T16:30:01.331Z,92.57
2022-12-11T16:35:03.988Z,92.02
2022-12-11T16:40:09.288Z,92.22
2022-12-11T16:45:14.940Z,91.84
2022-12-11T16:50:17.773Z,92.25
2022-12-11T16:55:22.167Z,91.46
2022-12-11T17:00:25.584Z,91.63
2022-12-11T17:05:28.062Z,91.81
2022-12-11T17:10:31.934Z,91.83
2022-12-11T17:15:34.554Z,91.97
2022-12-11T17:20:40.869Z,91.62
2022-12-11T17:25:46.180Z,91.50
2022-12-11T17:30:49.971Z,92.18
2022-12-11T17:35:52.581Z,92.46
2022-12-11T17:40:56.407Z,93.14
2022-12-11T17:45:59.054Z,94.25
2022-12-11T17:51:04.655Z,95.79
2022-12-11T17:56:09.590Z,96.27
2022-12-11T18:01:12.294Z,96.46
2022-12-11T18:06:17.155Z,96.47
2022-12-11T18:11:22.531Z,96.20
2022-12-11T18:16:27.317Z,95.69
2022-12-11T18:21:32.229Z,95.23
2022-12-11T18:26:37.347Z,95.04
2022-12-11T18:31:42.656Z,94.74
2022-12-11T18:36:45.542Z,94.73
2022-12-11T18:42:03.385Z,94.67
2022-12-11T18:47:11.804Z,94.98
2022-12-11T18:52:14.581Z,95.05
2022-12-11T18:57:18.380Z,95.41
2022-12-11T19:02:21.663Z,95.51
2022-12-11T19:07:24.165Z,95.37
2022-12-11T19:12:28.075Z,95.47
2022-12-11T19:17:30.539Z,95.49
2022-12-11T19:22:33.136Z,95.44
2022-12-11T19:27:36.977Z,95.49
2022-12-11T19:32:39.481Z,95.54
2022-12-11T19:37:41.949Z,95.48
2022-12-11T19:42:45.831Z,95.44
2022-12-11T19:47:48.325Z,95.07
2022-12-11T19:52:50.803Z,95.23
2022-12-11T19:57:54.604Z,94.73
2022-12-11T20:02:57.101Z,95.23
2022-12-11T20:08:27.298Z,94.87
2022-12-11T20:13:24.102Z,94.83
2022-12-11T20:18:26.654Z,94.37
2022-12-11T20:23:29.166Z,93.93
2022-12-11T20:28:32.978Z,93.83
2022-12-11T20:33:35.732Z,93.90
2022-12-11T20:38:38.722Z,94.04
2022-12-11T20:43:43.198Z,93.49
2022-12-11T20:48:46.436Z,93.69
2022-12-11T20:53:50.185Z,93.30
2022-12-11T20:58:53.990Z,93.18
2022-12-11T21:03:56.608Z,93.23
2022-12-11T21:09:00.390Z,92.33
2022-12-11T21:14:04.982Z,92.83
2022-12-11T21:19:10.219Z,92.57
2022-12-11T21:24:18.568Z,92.41
2022-12-11T21:29:22.539Z,92.77
2022-12-11T21:34:25.729Z,92.78
2022-12-11T21:39:29.178Z,93.38
2022-12-11T21:49:55.665Z,94.03
2022-12-11T21:54:58.139Z,94.44
2022-12-11T22:00:01.951Z,95.52
2022-12-11T22:05:04.870Z,95.52
2022-12-11T22:10:08.167Z,95.74
2022-12-11T22:15:12.488Z,95.84
2022-12-11T22:20:15.134Z,96.21
2022-12-11T22:25:17.686Z,95.63
2022-12-11T22:30:21.928Z,96.05
2022-12-11T22:35:27.401Z,96.00
2022-12-11T22:40:30.746Z,96.48
2022-12-11T22:45:39.716Z,96.70
2022-12-11T22:50:42.397Z,96.15
2022-12-11T22:55:44.881Z,96.42
2022-12-11T23:00:48.982Z,96.19
2022-12-11T23:05:51.455Z,96.17
2022-12-11T23:10:53.948Z,95.82
2022-12-11T23:15:57.794Z,95.98
2022-12-11T23:21:00.440Z,95.06
2022-12-11T23:26:03.338Z,95.02
2022-12-11T23:31:07.645Z,95.21
2022-12-11T23:36:10.758Z,95.48
2022-12-11T23:41:15.624Z,95.54
2022-12-11T23:46:21.643Z,95.08
2022-12-11T23:51:26.045Z,94.61
2022-12-11T23:56:30.089Z,95.32
